Decoded Metar for CYBK (BAKER LAKE in NU, CANADA) (IATA:YBK) | Meteo·Mobile Aviation Weather
aviador You're here:

CYBK Decoded Metar

BAKER LAKE in NU, CANADA
Report Time2019-10-21 08:00:00
UTC Time2019-10-21 08:43:32
Flight Rules vfr VFR
Wind280° at 11 kt
W.Decomp.*RWY 34: 6.0 kt HW 9.2 kt LCW
Visibility9999 m
Phenomena:N/A
Clouds:Few 033 Hf
Scattered 100 Hf
Expected CloudBase > 400 ft AGL from Temp-Dew spread
CeilingNone
Temp-2°C (ISA -17)
Dew Point-3°C (93% RH)
AAT-8.3°C
QNH996 hPa
Density Alt-1,362 ft
Elevation59 ft
Report Wrong Elevation
Raw Report
CYBK 210800Z 28011KT 15SM FEW033 SCT100 M02/M03 A2940 RMK SC2AC1
SLP958=

Extra information for CYBK:More info

Metar Taf Metar & Taf Last 4 Metars F.Rules Stats Wind Profile Meteogram Temp Stats Airport Information Weather charts Add Link Nearby VenuesMetar ALERT Operation Metar Decoded Social comments